Time;durP1;ratioP1;P1;durP2;ratioP2;P2;SDS_P1;SDS_P2;PMS_P1;PMS_P2;Temp;Humidity;BMP_temperature;BMP_pressure;BME280_temperature;BME280_humidity;BME280_pressure;Samples;Min_cycle;Max_cycle;Signal;HPM_P1;HPM_P2
2023/09/16 00:00:33;;;;;;;8.55;4.07;;;;;;;15.95;74.62;101775.41;7394244;19;20078;-68
2023/09/16 00:03:03;;;;;;;6.68;3.60;;;;;;;15.93;74.63;101773.84;7392650;19;20014;-68
2023/09/16 00:05:32;;;;;;;6.57;3.60;;;;;;;15.83;74.89;101768.34;7393828;19;20018;-67
2023/09/16 00:07:59;;;;;;;6.85;3.42;;;;;;;15.87;74.57;101769.81;7391574;19;20479;-67
2023/09/16 00:10:27;;;;;;;8.80;3.88;;;;;;;15.94;74.24;101770.19;7391580;19;20014;-67
2023/09/16 00:12:54;;;;;;;7.18;3.90;;;;;;;15.92;74.16;101764.97;7391551;19;20019;-66
2023/09/16 00:15:22;;;;;;;6.90;4.18;;;;;;;15.53;75.57;101771.59;7393568;19;20011;-66
2023/09/16 00:17:49;;;;;;;8.18;4.15;;;;;;;15.25;76.93;101768.41;7392110;19;20018;-66
2023/09/16 00:20:17;;;;;;;7.57;4.10;;;;;;;15.49;76.21;101763.00;7391600;19;20419;-66
2023/09/16 00:22:45;;;;;;;8.10;3.95;;;;;;;15.55;75.82;101751.81;7392007;19;20021;-66
2023/09/16 00:25:14;;;;;;;6.93;3.55;;;;;;;15.55;75.46;101754.50;7393318;19;20501;-67
2023/09/16 00:27:41;;;;;;;6.55;3.75;;;;;;;15.64;75.20;101760.06;7392618;19;20085;-67
2023/09/16 00:30:10;;;;;;;6.75;3.80;;;;;;;15.76;74.61;101760.00;7393180;19;20026;-68
2023/09/16 00:32:37;;;;;;;7.97;3.85;;;;;;;15.71;74.41;101754.16;7392969;19;20035;-67
2023/09/16 00:35:05;;;;;;;6.65;3.72;;;;;;;15.75;74.59;101752.94;7392898;19;20022;-67
2023/09/16 00:37:32;;;;;;;6.95;3.63;;;;;;;15.68;74.64;101751.75;7392099;19;20018;-67
2023/09/16 00:40:00;;;;;;;6.97;3.78;;;;;;;15.72;74.52;101753.22;7392260;19;20025;-66
2023/09/16 00:42:28;;;;;;;8.05;3.92;;;;;;;15.78;74.65;101755.38;7391285;19;20033;-66
2023/09/16 00:44:56;;;;;;;7.55;3.92;;;;;;;15.56;74.82;101760.69;7392284;19;20038;-65
2023/09/16 00:47:23;;;;;;;7.35;3.50;;;;;;;15.52;75.58;101757.41;7391707;19;20018;-64
2023/09/16 00:49:51;;;;;;;6.72;3.50;;;;;;;15.58;75.21;101756.94;7390840;19;20507;-64
2023/09/16 00:52:18;;;;;;;7.28;3.83;;;;;;;15.62;75.00;101754.88;7392268;19;20025;-63
2023/09/16 00:54:50;;;;;;;6.22;3.63;;;;;;;15.65;75.00;101751.13;7392275;19;20526;-62
2023/09/16 00:57:17;;;;;;;6.68;3.50;;;;;;;15.63;75.17;101745.03;7391890;19;20352;-64
2023/09/16 00:59:45;;;;;;;7.05;3.85;;;;;;;15.63;75.06;101743.22;7389985;19;20051;-63
2023/09/16 01:02:15;;;;;;;6.38;3.60;;;;;;;15.71;74.49;101748.81;7391433;19;20106;-63
2023/09/16 01:04:43;;;;;;;7.15;3.75;;;;;;;15.64;74.55;101739.56;7392543;19;20015;-63
2023/09/16 01:07:11;;;;;;;5.85;3.20;;;;;;;15.56;74.68;101732.16;7392059;19;20023;-63
2023/09/16 01:09:39;;;;;;;6.50;3.70;;;;;;;15.51;74.62;101726.34;7390358;19;20007;-63
2023/09/16 01:12:10;;;;;;;7.25;4.00;;;;;;;15.51;74.73;101730.84;7392383;19;20039;-63
2023/09/16 01:14:38;;;;;;;6.53;3.60;;;;;;;15.49;74.74;101727.41;7390120;19;20531;-63
2023/09/16 01:17:14;;;;;;;6.25;3.80;;;;;;;15.48;74.67;101717.72;7391945;19;20025;-63
2023/09/16 01:19:57;;;;;;;7.25;3.58;;;;;;;15.47;74.46;101714.22;7389681;19;20043;-63
2023/09/16 01:22:25;;;;;;;7.60;3.78;;;;;;;15.42;74.83;101720.91;7394533;19;20015;-63
2023/09/16 01:24:53;;;;;;;6.55;3.70;;;;;;;15.52;74.46;101724.50;7399540;19;20030;-63
2023/09/16 01:27:21;;;;;;;6.68;3.53;;;;;;;15.30;75.60;101726.22;7399816;19;20018;-64
2023/09/16 01:29:50;;;;;;;6.40;3.72;;;;;;;15.38;75.20;101730.09;7394917;19;20014;-65
2023/09/16 01:32:24;;;;;;;6.68;3.70;;;;;;;15.42;74.97;101728.91;7398553;19;20401;-65
2023/09/16 01:34:54;;;;;;;8.07;3.72;;;;;;;15.13;76.02;101731.16;7398278;19;20025;-65
2023/09/16 01:37:24;;;;;;;7.05;3.58;;;;;;;14.99;76.86;101730.38;7398937;19;20014;-65
2023/09/16 01:39:57;;;;;;;7.38;3.53;;;;;;;15.05;76.65;101729.09;7395637;19;20082;-65
2023/09/16 01:42:28;;;;;;;6.40;3.72;;;;;;;15.26;75.94;101724.75;7396744;19;20027;-66
2023/09/16 01:44:56;;;;;;;6.20;3.53;;;;;;;15.30;75.62;101717.34;7397887;19;20018;-65
2023/09/16 01:47:23;;;;;;;5.82;3.35;;;;;;;15.35;75.30;101725.84;7398142;19;20507;-67
2023/09/16 01:49:51;;;;;;;8.65;3.80;;;;;;;15.31;75.30;101725.25;7395007;19;20483;-67
2023/09/16 01:52:18;;;;;;;6.38;3.55;;;;;;;15.31;75.34;101719.91;7397799;19;20048;-67
2023/09/16 01:54:46;;;;;;;7.82;3.80;;;;;;;15.34;75.31;101718.81;7397791;19;20043;-67
2023/09/16 01:57:13;;;;;;;6.63;3.60;;;;;;;15.33;75.25;101711.78;7397615;19;20046;-65
2023/09/16 01:59:41;;;;;;;7.07;3.33;;;;;;;15.32;75.27;101723.44;7394579;19;20029;-65
2023/09/16 02:02:08;;;;;;;6.75;3.60;;;;;;;15.29;75.27;101723.66;7397048;19;20018;-64
2023/09/16 02:04:36;;;;;;;6.35;3.67;;;;;;;15.22;75.46;101715.28;7396308;19;20023;-65
2023/09/16 02:07:03;;;;;;;8.77;4.20;;;;;;;15.20;75.58;101714.56;7397846;19;20011;-65
2023/09/16 02:09:31;;;;;;;5.90;3.30;;;;;;;15.22;75.26;101714.44;7394032;19;20377;-63
2023/09/16 02:11:58;;;;;;;6.65;3.83;;;;;;;15.23;75.27;101717.00;7397651;19;20035;-63
2023/09/16 02:14:26;;;;;;;6.70;3.72;;;;;;;15.22;75.26;101715.28;7397721;19;20025;-63
2023/09/16 02:16:53;;;;;;;7.95;3.85;;;;;;;15.20;75.37;101711.88;7397309;19;20022;-63
2023/09/16 02:19:21;;;;;;;6.47;3.42;;;;;;;15.16;75.58;101714.91;7394438;19;20015;-63
2023/09/16 02:21:49;;;;;;;7.22;3.70;;;;;;;15.11;75.50;101710.78;7395466;19;20023;-64
2023/09/16 02:24:16;;;;;;;6.70;3.42;;;;;;;15.09;75.66;101709.19;7397227;19;20018;-67
2023/09/16 02:26:44;;;;;;;5.95;3.67;;;;;;;15.11;75.46;101705.47;7395659;19;20025;-67
2023/09/16 02:29:12;;;;;;;7.60;3.75;;;;;;;15.07;75.58;101705.78;7394601;19;20493;-67
2023/09/16 02:31:39;;;;;;;6.72;3.95;;;;;;;15.09;75.36;101712.72;7395636;19;20563;-65
2023/09/16 02:34:07;;;;;;;6.43;3.25;;;;;;;15.14;75.12;101720.34;7393617;19;20026;-65
2023/09/16 02:36:36;;;;;;;6.95;3.60;;;;;;;15.10;75.22;101717.06;7396182;19;20056;-65
2023/09/16 02:39:03;;;;;;;5.75;3.60;;;;;;;15.06;75.20;101712.09;7392883;19;20025;-65
2023/09/16 02:41:31;;;;;;;6.18;3.65;;;;;;;15.03;75.37;101710.53;7395233;19;20017;-66
2023/09/16 02:43:59;;;;;;;8.45;3.83;;;;;;;14.99;75.45;101711.72;7394299;19;20019;-66
2023/09/16 02:46:26;;;;;;;6.32;3.55;;;;;;;15.06;75.22;101714.78;7396049;19;20097;-66
2023/09/16 02:48:54;;;;;;;8.07;3.55;;;;;;;15.08;75.04;101707.50;7394404;19;20405;-68
2023/09/16 02:51:21;;;;;;;6.18;3.33;;;;;;;15.08;75.03;101708.34;7396236;19;20364;-66
2023/09/16 02:53:49;;;;;;;5.95;3.22;;;;;;;15.03;75.18;101709.66;7396421;19;20022;-65
2023/09/16 02:56:17;;;;;;;8.30;3.85;;;;;;;14.97;75.34;101704.81;7395942;19;20037;-66
2023/09/16 02:58:44;;;;;;;8.55;4.05;;;;;;;14.93;75.47;101706.03;7394499;19;20360;-66
2023/09/16 03:01:12;;;;;;;7.07;3.70;;;;;;;14.92;75.36;101702.50;7396403;19;20784;-66
2023/09/16 03:03:40;;;;;;;6.40;3.72;;;;;;;14.95;75.29;101702.25;7394342;19;20404;-66
2023/09/16 03:06:08;;;;;;;7.30;3.60;;;;;;;15.00;75.16;101705.44;7397151;19;20070;-66
2023/09/16 03:08:38;;;;;;;6.35;3.90;;;;;;;14.91;75.32;101702.63;7394695;19;20018;-66
2023/09/16 03:11:06;;;;;;;5.53;3.60;;;;;;;14.91;75.33;101705.28;7396611;19;20033;-66
2023/09/16 03:13:33;;;;;;;5.03;3.03;;;;;;;14.91;75.18;101699.94;7396482;19;20038;-66
2023/09/16 03:16:21;;;;;;;4.72;3.20;;;;;;;14.87;75.09;101702.84;7396333;19;20348;-66
2023/09/16 03:18:52;;;;;;;6.88;3.70;;;;;;;14.76;75.49;101696.63;7392791;19;20032;-64
2023/09/16 03:21:23;;;;;;;5.80;3.40;;;;;;;14.76;75.36;101704.63;7395702;19;20047;-64
2023/09/16 03:23:51;;;;;;;5.38;3.42;;;;;;;14.71;75.67;101691.66;7394162;19;20015;-65
2023/09/16 03:26:19;;;;;;;7.20;3.72;;;;;;;14.74;75.29;101691.44;7395127;19;20070;-64
2023/09/16 03:28:46;;;;;;;7.85;4.05;;;;;;;14.45;76.36;101687.41;7393260;19;20021;-64
2023/09/16 03:31:15;;;;;;;6.75;3.60;;;;;;;14.48;76.42;101684.53;7395542;19;20036;-63
2023/09/16 03:33:44;;;;;;;6.40;3.38;;;;;;;14.55;76.01;101685.78;7394718;19;20018;-65
2023/09/16 03:36:12;;;;;;;5.97;3.58;;;;;;;14.68;75.21;101685.72;7393520;19;20015;-65
2023/09/16 03:38:47;;;;;;;4.95;3.03;;;;;;;14.71;74.92;101683.66;7393107;19;20027;-64
2023/09/16 03:41:16;;;;;;;7.45;3.85;;;;;;;14.50;75.20;101683.47;7394826;19;20104;-64
2023/09/16 03:43:44;;;;;;;5.35;3.67;;;;;;;14.27;76.37;101678.97;7393186;19;20035;-64
2023/09/16 03:46:16;;;;;;;6.75;3.63;;;;;;;14.15;77.31;101672.72;7394268;19;20039;-64
2023/09/16 03:48:43;;;;;;;5.10;3.30;;;;;;;14.38;76.28;101673.69;7391216;19;20082;-65
2023/09/16 03:51:12;;;;;;;5.45;3.15;;;;;;;14.46;75.53;101675.78;7393445;19;20355;-64
2023/09/16 03:53:40;;;;;;;7.07;3.60;;;;;;;14.38;76.25;101669.25;7393851;19;20010;-63
2023/09/16 03:56:11;;;;;;;5.88;3.20;;;;;;;14.47;75.76;101669.50;7392040;19;20019;-64
2023/09/16 03:58:39;;;;;;;5.20;3.20;;;;;;;14.50;75.79;101671.94;7392090;19;20042;-64
2023/09/16 04:01:07;;;;;;;6.28;3.53;;;;;;;14.55;75.49;101664.47;7393619;19;20018;-66
2023/09/16 04:03:35;;;;;;;5.47;3.28;;;;;;;14.57;75.34;101659.84;7391223;19;20047;-68
2023/09/16 04:06:04;;;;;;;7.38;3.25;;;;;;;14.55;75.42;101659.97;7393518;19;20025;-68
2023/09/16 04:08:32;;;;;;;5.53;3.40;;;;;;;14.63;75.26;101662.06;7391945;19;20058;-65
2023/09/16 04:11:09;;;;;;;5.53;3.20;;;;;;;14.53;75.57;101663.72;7393734;19;20389;-65
2023/09/16 04:13:38;;;;;;;8.02;3.70;;;;;;;14.47;75.69;101659.69;7393815;19;20019;-65
2023/09/16 04:16:05;;;;;;;5.55;3.20;;;;;;;14.48;75.61;101665.88;7394229;19;20069;-65
2023/09/16 04:18:34;;;;;;;5.43;3.20;;;;;;;14.48;75.76;101673.84;7392250;19;20035;-65
2023/09/16 04:21:02;;;;;;;5.10;3.22;;;;;;;14.46;75.62;101667.78;7392547;19;20025;-65
2023/09/16 04:23:31;;;;;;;7.05;3.30;;;;;;;14.42;75.56;101669.81;7392348;19;20017;-65
2023/09/16 04:26:02;;;;;;;6.10;3.15;;;;;;;14.42;75.55;101667.16;7393311;19;20099;-65
2023/09/16 04:28:29;;;;;;;5.88;3.60;;;;;;;14.12;76.58;101665.00;7390032;19;20023;-66
2023/09/16 04:30:58;;;;;;;6.30;3.13;;;;;;;14.14;76.84;101674.56;7392903;19;20019;-67
2023/09/16 04:33:25;;;;;;;7.00;3.30;;;;;;;14.18;76.63;101672.53;7392596;19;20022;-67
2023/09/16 04:35:53;;;;;;;6.47;3.33;;;;;;;14.11;76.95;101672.13;7393028;19;20034;-67
2023/09/16 04:38:22;;;;;;;5.85;3.42;;;;;;;14.30;76.07;101671.59;7389573;19;20086;-67
2023/09/16 04:40:50;;;;;;;5.88;3.45;;;;;;;14.46;75.26;101670.44;7391495;19;20046;-67
2023/09/16 04:43:17;;;;;;;6.88;3.58;;;;;;;14.19;76.18;101668.88;7391542;19;20390;-66
2023/09/16 04:45:49;;;;;;;5.63;3.60;;;;;;;13.89;77.52;101672.84;7391324;19;20018;-66
2023/09/16 04:48:17;;;;;;;5.90;3.20;;;;;;;13.92;77.85;101674.44;7392646;19;20011;-66
2023/09/16 04:50:46;;;;;;;5.80;3.38;;;;;;;14.13;77.04;101675.53;7392677;19;20039;-67
2023/09/16 04:53:14;;;;;;;5.20;3.22;;;;;;;14.25;76.33;101670.25;7392074;19;20055;-66
2023/09/16 04:55:42;;;;;;;5.47;2.90;;;;;;;14.29;76.14;101664.56;7392097;19;20018;-67
2023/09/16 04:58:09;;;;;;;5.43;3.22;;;;;;;14.32;75.92;101666.16;7390285;19;20025;-67
2023/09/16 05:00:38;;;;;;;6.95;3.55;;;;;;;14.31;76.01;101667.16;7391793;19;20018;-67
2023/09/16 05:03:06;;;;;;;7.15;3.60;;;;;;;14.30;75.84;101660.94;7391639;19;20030;-67
2023/09/16 05:05:35;;;;;;;6.15;3.30;;;;;;;14.28;76.14;101670.03;7392292;19;20011;-66
2023/09/16 05:08:02;;;;;;;6.72;3.25;;;;;;;14.26;76.10;101667.47;7390785;19;20011;-66
2023/09/16 05:10:30;;;;;;;8.07;3.47;;;;;;;14.33;75.86;101657.22;7392144;19;20035;-66
2023/09/16 05:12:57;;;;;;;6.88;3.55;;;;;;;14.23;76.14;101662.38;7392167;19;20015;-67
2023/09/16 05:15:26;;;;;;;4.93;3.25;;;;;;;14.23;76.36;101658.84;7392088;19;20078;-66
2023/09/16 05:17:54;;;;;;;6.25;3.67;;;;;;;14.28;75.92;101662.03;7390894;19;20053;-65
2023/09/16 05:20:21;;;;;;;5.22;3.10;;;;;;;14.35;75.75;101663.28;7391800;19;20035;-67
2023/09/16 05:22:50;;;;;;;7.15;3.70;;;;;;;14.31;75.87;101654.66;7391513;19;20039;-67
2023/09/16 05:25:17;;;;;;;5.32;3.33;;;;;;;14.25;76.18;101664.94;7389695;19;20017;-66
2023/09/16 05:27:45;;;;;;;5.97;3.30;;;;;;;14.24;76.17;101655.25;7388419;19;20023;-66
2023/09/16 05:30:14;;;;;;;4.97;3.30;;;;;;;14.29;76.11;101656.59;7389531;19;20030;-66
2023/09/16 05:32:42;;;;;;;5.78;3.40;;;;;;;14.34;75.92;101661.56;7391126;19;20019;-66
2023/09/16 05:35:10;;;;;;;6.57;3.30;;;;;;;14.41;75.88;101660.13;7391157;19;20014;-66
2023/09/16 05:37:37;;;;;;;7.25;3.65;;;;;;;14.42;75.92;101660.97;7390208;19;20390;-66
2023/09/16 05:40:05;;;;;;;7.05;3.55;;;;;;;14.45;75.82;101663.41;7391361;19;20050;-66
2023/09/16 05:42:34;;;;;;;7.13;3.47;;;;;;;14.38;76.07;101657.69;7390540;19;20022;-66
2023/09/16 05:45:03;;;;;;;6.45;3.75;;;;;;;14.39;76.33;101662.94;7388553;19;20044;-67
2023/09/16 05:47:31;;;;;;;4.85;3.28;;;;;;;14.42;76.34;101656.50;7390426;19;20007;-66
2023/09/16 05:49:58;;;;;;;7.45;3.80;;;;;;;14.53;76.14;101659.25;7390129;19;20462;-67
2023/09/16 05:52:26;;;;;;;6.22;3.50;;;;;;;14.56;76.17;101664.34;7390101;19;20015;-65
2023/09/16 05:54:53;;;;;;;6.90;3.45;;;;;;;14.56;76.09;101664.34;7388484;19;20018;-66
2023/09/16 05:57:21;;;;;;;6.13;3.40;;;;;;;14.64;76.27;101661.09;7389106;19;20019;-67
2023/09/16 05:59:48;;;;;;;5.85;3.30;;;;;;;14.72;75.96;101664.00;7387078;19;20020;-66
2023/09/16 06:02:17;;;;;;;6.35;3.40;;;;;;;14.73;76.03;101660.41;7389861;19;20018;-66
2023/09/16 06:04:44;;;;;;;9.20;3.85;;;;;;;14.74;76.25;101672.75;7387334;19;20086;-66
2023/09/16 06:07:12;;;;;;;6.85;3.72;;;;;;;14.82;76.04;101675.69;7388517;19;20471;-66
2023/09/16 06:09:39;;;;;;;5.95;3.63;;;;;;;14.82;76.04;101666.84;7391607;19;20009;-66
2023/09/16 06:12:07;;;;;;;5.63;3.58;;;;;;;14.87;76.22;101668.16;7397905;19;20019;-67
2023/09/16 06:14:34;;;;;;;6.22;3.92;;;;;;;14.88;76.43;101663.69;7397674;19;20074;-66
2023/09/16 06:17:02;;;;;;;5.65;3.60;;;;;;;14.90;76.55;101666.25;7397194;19;20046;-66
2023/09/16 06:19:31;;;;;;;7.07;3.78;;;;;;;14.99;76.22;101660.19;7392415;19;20018;-66
2023/09/16 06:21:58;;;;;;;7.35;3.70;;;;;;;14.97;76.30;101652.31;7395977;19;20022;-66
2023/09/16 06:24:26;;;;;;;7.97;4.20;;;;;;;14.99;76.32;101653.03;7395895;19;20026;-66
2023/09/16 06:26:54;;;;;;;6.07;3.42;;;;;;;15.03;76.41;101659.84;7395237;19;20025;-66
2023/09/16 06:29:21;;;;;;;7.03;3.80;;;;;;;15.10;76.49;101652.19;7394457;19;20033;-65
2023/09/16 06:31:48;;;;;;;8.45;4.18;;;;;;;15.11;76.52;101660.09;7395281;19;20023;-67
2023/09/16 06:34:16;;;;;;;8.23;3.50;;;;;;;15.15;76.66;101659.84;7395362;19;20389;-67
2023/09/16 06:36:44;;;;;;;6.03;4.00;;;;;;;15.27;76.42;101662.41;7395463;19;20363;-67
2023/09/16 06:39:11;;;;;;;8.55;4.50;;;;;;;15.34;76.44;101662.78;7394556;19;20341;-67
2023/09/16 06:41:39;;;;;;;9.35;5.22;;;;;;;15.47;76.18;101654.63;7394511;19;20015;-67
2023/09/16 06:44:06;;;;;;;8.35;4.70;;;;;;;15.56;75.86;101648.53;7395446;19;20447;-67
2023/09/16 06:46:34;;;;;;;9.20;4.57;;;;;;;15.64;75.58;101655.94;7396020;19;20018;-66
2023/09/16 06:49:01;;;;;;;8.48;4.78;;;;;;;15.68;75.38;101650.28;7394212;19;20487;-66
2023/09/16 06:51:29;;;;;;;8.73;4.82;;;;;;;15.73;75.62;101642.72;7394466;19;20033;-66
2023/09/16 06:53:56;;;;;;;8.90;5.57;;;;;;;15.77;75.80;101644.19;7394467;19;20013;-66
2023/09/16 06:56:24;;;;;;;10.35;5.47;;;;;;;15.78;75.56;101642.34;7395610;19;20026;-66
2023/09/16 06:58:51;;;;;;;8.55;4.88;;;;;;;15.86;75.61;101650.59;7398246;19;20480;-66
2023/09/16 07:01:18;;;;;;;8.20;5.10;;;;;;;15.89;75.40;101644.16;7395514;19;20019;-66
2023/09/16 07:03:46;;;;;;;7.70;4.93;;;;;;;15.97;75.14;101652.38;7393813;19;20022;-67
2023/09/16 07:06:13;;;;;;;8.55;5.20;;;;;;;16.06;75.08;101651.63;7395031;19;20043;-67
2023/09/16 07:08:41;;;;;;;10.55;5.00;;;;;;;16.12;74.81;101656.47;7393318;19;20015;-66
2023/09/16 07:11:11;;;;;;;9.60;4.90;;;;;;;16.14;74.88;101653.66;7395681;19;20026;-66
2023/09/16 07:13:38;;;;;;;9.60;5.00;;;;;;;16.17;74.78;101662.25;7395036;19;20046;-66
2023/09/16 07:16:06;;;;;;;9.13;5.40;;;;;;;16.21;74.61;101658.34;7395149;19;20496;-66
2023/09/16 07:18:35;;;;;;;8.48;5.22;;;;;;;16.23;74.63;101659.09;7393397;19;20019;-66
2023/09/16 07:21:02;;;;;;;9.32;5.07;;;;;;;16.27;74.87;101660.53;7392891;19;20036;-65
2023/09/16 07:23:30;;;;;;;8.80;5.22;;;;;;;16.32;74.48;101660.16;7393491;19;20022;-65
2023/09/16 07:25:59;;;;;;;8.98;5.10;;;;;;;16.36;74.75;101663.41;7393456;19;20015;-65
2023/09/16 07:28:28;;;;;;;7.53;4.80;;;;;;;16.29;74.67;101661.28;7393236;19;20022;-63
2023/09/16 07:30:56;;;;;;;7.80;4.70;;;;;;;16.34;74.82;101668.91;7394717;19;20017;-65
2023/09/16 07:33:24;;;;;;;8.45;4.95;;;;;;;16.34;75.23;101668.91;7394953;19;20027;-66
2023/09/16 07:35:52;;;;;;;9.02;5.20;;;;;;;16.42;74.81;101671.78;7394460;19;20047;-65
2023/09/16 07:38:20;;;;;;;8.13;4.90;;;;;;;16.46;75.09;101667.03;7391191;19;20019;-65
2023/09/16 07:40:51;;;;;;;7.10;4.60;;;;;;;16.46;75.31;101669.69;7394278;19;20019;-65
2023/09/16 07:43:20;;;;;;;9.45;4.68;;;;;;;16.52;75.42;101663.81;7392259;19;20374;-65
2023/09/16 07:45:47;;;;;;;8.98;4.85;;;;;;;16.54;75.19;101660.03;7390760;19;20180;-65
2023/09/16 07:48:17;;;;;;;10.20;4.90;;;;;;;16.61;74.74;101668.41;7393339;19;20023;-65
2023/09/16 07:50:45;;;;;;;8.50;5.03;;;;;;;16.69;74.38;101665.09;7395120;19;20018;-65
2023/09/16 07:53:12;;;;;;;8.75;5.07;;;;;;;16.72;74.44;101668.34;7396163;19;20022;-65
2023/09/16 07:55:40;;;;;;;8.95;5.35;;;;;;;16.70;74.66;101659.59;7394255;19;20026;-65
2023/09/16 07:58:07;;;;;;;8.65;4.95;;;;;;;16.73;74.80;101664.72;7395016;19;20018;-65
2023/09/16 08:00:35;;;;;;;9.05;4.90;;;;;;;16.70;74.34;101656.91;7393907;19;20015;-65
2023/09/16 08:03:03;;;;;;;8.93;4.82;;;;;;;16.76;74.52;101663.63;7393876;19;20040;-65
2023/09/16 08:05:30;;;;;;;8.82;4.95;;;;;;;16.78;73.87;101661.63;7392386;19;20077;-65
2023/09/16 08:07:58;;;;;;;8.82;5.15;;;;;;;16.83;73.75;101666.59;7392797;19;20035;-65
2023/09/16 08:10:25;;;;;;;7.93;5.05;;;;;;;16.83;73.96;101670.16;7393911;19;20078;-66
2023/09/16 08:12:53;;;;;;;8.32;5.30;;;;;;;16.87;73.93;101671.56;7393120;19;20372;-66
2023/09/16 08:15:21;;;;;;;10.63;5.35;;;;;;;16.94;73.69;101658.50;7393665;19;20098;-65
2023/09/16 08:17:48;;;;;;;11.60;5.05;;;;;;;16.93;74.17;101662.16;7392380;19;20023;-65
2023/09/16 08:20:18;;;;;;;7.88;5.07;;;;;;;17.02;73.88;101654.19;7393836;19;20786;-66
2023/09/16 08:22:46;;;;;;;8.55;4.25;;;;;;;17.07;73.93;101655.63;7392445;19;20085;-66
2023/09/16 08:25:14;;;;;;;10.48;5.30;;;;;;;17.14;73.78;101657.63;7392572;19;20014;-66
2023/09/16 08:27:41;;;;;;;9.60;4.55;;;;;;;17.17;73.87;101660.06;7392070;19;20010;-66
2023/09/16 08:30:09;;;;;;;9.80;5.18;;;;;;;17.22;73.60;101654.28;7393244;19;20073;-66
2023/09/16 08:32:38;;;;;;;10.35;4.95;;;;;;;17.25;73.39;101651.34;7389239;19;20022;-66
2023/09/16 08:35:07;;;;;;;8.15;4.43;;;;;;;17.32;73.24;101651.63;7392984;19;20053;-66
2023/09/16 08:37:35;;;;;;;8.40;4.88;;;;;;;17.42;73.20;101655.22;7390407;19;20027;-66
2023/09/16 08:40:03;;;;;;;9.73;5.00;;;;;;;17.47;73.28;101661.00;7391671;19;20026;-65
2023/09/16 08:42:38;;;;;;;7.85;4.43;;;;;;;17.48;73.18;101666.22;7392884;19;20014;-66
2023/09/16 08:45:10;;;;;;;9.52;4.60;;;;;;;17.50;73.48;101660.72;7391611;19;20022;-65
2023/09/16 08:47:47;;;;;;;9.02;5.07;;;;;;;17.52;73.22;101654.25;7391690;19;20018;-65
2023/09/16 08:50:17;;;;;;;8.52;4.80;;;;;;;17.52;73.24;101658.78;7392017;19;20018;-65
2023/09/16 08:52:53;;;;;;;8.98;4.93;;;;;;;17.59;73.33;101659.94;7390641;19;20014;-65
2023/09/16 08:55:21;;;;;;;13.25;5.00;;;;;;;17.63;73.11;101663.16;7393155;19;20024;-65
2023/09/16 08:57:57;;;;;;;9.60;5.28;;;;;;;17.73;73.04;101654.16;7391115;19;20106;-65
2023/09/16 09:00:24;;;;;;;10.23;4.93;;;;;;;17.76;73.06;101651.25;7392579;19;20010;-66
2023/09/16 09:02:53;;;;;;;10.07;5.57;;;;;;;17.85;72.85;101646.88;7392623;19;20018;-65
2023/09/16 09:05:23;;;;;;;9.50;4.88;;;;;;;17.89;72.84;101648.28;7389706;19;20015;-65
2023/09/16 09:07:51;;;;;;;9.32;5.10;;;;;;;18.01;72.60;101651.72;7390502;19;20031;-65
2023/09/16 09:10:19;;;;;;;8.95;4.70;;;;;;;18.10;72.32;101650.03;7390961;19;20018;-65
2023/09/16 09:12:46;;;;;;;10.15;4.90;;;;;;;18.18;71.96;101645.66;7392287;19;20014;-65
2023/09/16 09:15:15;;;;;;;6.47;4.18;;;;;;;18.27;71.53;101642.13;7393789;19;20022;-65
2023/09/16 09:17:45;;;;;;;11.45;5.28;;;;;;;18.36;71.38;101636.91;7393309;19;20018;-65
2023/09/16 09:20:19;;;;;;;9.63;4.85;;;;;;;18.50;71.04;101644.50;7393576;19;20596;-65
2023/09/16 09:22:49;;;;;;;13.15;6.35;;;;;;;18.51;70.29;101635.50;7393630;19;20520;-65
2023/09/16 09:25:26;;;;;;;8.85;5.47;;;;;;;18.58;69.71;101635.75;7390273;19;20015;-65
2023/09/16 09:27:55;;;;;;;9.88;5.15;;;;;;;18.62;69.48;101638.03;7390145;19;20014;-65
2023/09/16 09:30:30;;;;;;;9.98;5.38;;;;;;;18.74;69.54;101644.09;7390623;19;20582;-65
2023/09/16 09:32:59;;;;;;;11.68;6.55;;;;;;;18.81;69.31;101641.66;7390583;19;20359;-65
2023/09/16 09:35:31;;;;;;;8.45;5.13;;;;;;;18.91;69.10;101639.81;7389593;19;20051;-65
2023/09/16 09:37:58;;;;;;;9.68;5.03;;;;;;;18.92;68.64;101650.38;7389790;19;20482;-65
2023/09/16 09:40:28;;;;;;;9.55;4.90;;;;;;;18.97;68.59;101647.28;7390502;19;20512;-65
2023/09/16 09:42:56;;;;;;;8.48;5.47;;;;;;;19.02;68.58;101645.00;7390499;19;20026;-65
2023/09/16 09:45:25;;;;;;;8.27;4.80;;;;;;;19.02;68.39;101642.31;7395133;19;20018;-65
2023/09/16 09:47:53;;;;;;;8.25;4.93;;;;;;;19.06;68.65;101641.03;7396947;19;20018;-65
2023/09/16 09:50:22;;;;;;;7.38;4.25;;;;;;;19.14;68.24;101633.09;7397819;19;20015;-65
2023/09/16 09:52:59;;;;;;;7.72;4.63;;;;;;;19.26;67.97;101627.53;7398126;19;20018;-66
2023/09/16 09:55:31;;;;;;;6.90;4.22;;;;;;;19.29;68.06;101633.44;7398053;19;20097;-66
2023/09/16 09:57:59;;;;;;;8.73;4.20;;;;;;;19.34;68.03;101627.63;7396114;19;20074;-66
2023/09/16 10:00:28;;;;;;;8.10;4.22;;;;;;;19.43;68.08;101622.22;7396233;19;20043;-66
2023/09/16 10:02:57;;;;;;;7.45;4.00;;;;;;;19.54;67.83;101617.66;7397980;19;20026;-65
2023/09/16 10:05:25;;;;;;;5.70;4.03;;;;;;;19.67;67.48;101616.31;7395554;19;20118;-65
2023/09/16 10:07:53;;;;;;;9.85;4.63;;;;;;;19.72;67.54;101613.16;7396012;19;20022;-66
2023/09/16 10:10:23;;;;;;;6.47;3.97;;;;;;;19.72;67.83;101607.78;7397381;19;20019;-65
2023/09/16 10:12:53;;;;;;;8.27;4.35;;;;;;;19.68;67.87;101609.09;7397075;19;20533;-66
2023/09/16 10:15:38;;;;;;;7.75;4.03;;;;;;;19.74;68.36;101607.66;7397186;19;20047;-65
2023/09/16 10:18:07;;;;;;;7.32;3.97;;;;;;;19.74;67.59;101610.34;7395588;19;20039;-65
2023/09/16 10:20:38;;;;;;;8.00;3.83;;;;;;;19.83;67.36;101606.72;7395230;19;20061;-65
2023/09/16 10:23:06;;;;;;;7.78;3.90;;;;;;;19.87;67.25;101603.56;7395154;19;20351;-65
2023/09/16 10:25:34;;;;;;;8.55;3.80;;;;;;;19.93;67.09;101607.50;7393458;19;20377;-65
2023/09/16 10:28:08;;;;;;;7.90;3.47;;;;;;;20.00;67.32;101608.59;7395275;19;20023;-65
2023/09/16 10:30:37;;;;;;;8.40;3.53;;;;;;;19.99;67.77;101612.25;7394694;19;20503;-65
2023/09/16 10:33:07;;;;;;;7.95;4.00;;;;;;;19.94;67.18;101601.97;7396743;19;20087;-65
2023/09/16 10:35:38;;;;;;;6.88;3.78;;;;;;;19.94;67.21;101607.34;7396699;19;20029;-65
2023/09/16 10:38:08;;;;;;;7.68;3.55;;;;;;;19.97;67.53;101603.50;7393743;19;20026;-65
2023/09/16 10:40:37;;;;;;;8.27;3.50;;;;;;;19.96;67.04;101604.50;7395910;19;20019;-65
2023/09/16 10:43:06;;;;;;;5.45;3.20;;;;;;;20.01;66.90;101612.97;7396006;19;20019;-65
2023/09/16 10:45:33;;;;;;;6.95;3.70;;;;;;;20.05;66.62;101606.28;7393289;19;20014;-65
2023/09/16 10:48:01;;;;;;;8.40;3.58;;;;;;;20.07;66.77;101600.72;7395032;19;20023;-65
2023/09/16 10:50:36;;;;;;;7.75;3.72;;;;;;;20.14;66.41;101607.19;7394506;19;20027;-66
2023/09/16 10:53:07;;;;;;;7.47;3.92;;;;;;;20.29;65.27;101599.41;7396075;19;20026;-65
2023/09/16 10:55:35;;;;;;;7.82;3.78;;;;;;;20.36;64.73;101595.09;7394381;19;20352;-65
2023/09/16 10:58:09;;;;;;;5.20;3.08;;;;;;;20.41;65.25;101598.16;7394406;19;20090;-66
2023/09/16 11:00:44;;;;;;;6.13;3.40;;;;;;;20.41;64.89;101601.72;7395878;19;20066;-66
2023/09/16 11:03:14;;;;;;;8.63;3.35;;;;;;;20.46;65.32;101595.84;7395826;19;20014;-66
2023/09/16 11:05:42;;;;;;;5.25;3.38;;;;;;;20.53;65.16;101588.88;7392531;19;20512;-66
2023/09/16 11:08:10;;;;;;;6.40;3.13;;;;;;;20.63;64.70;101584.22;7393382;19;20042;-66
2023/09/16 11:10:38;;;;;;;6.65;2.88;;;;;;;20.68;65.22;101583.72;7395253;19;20468;-66
2023/09/16 11:13:07;;;;;;;6.07;3.15;;;;;;;20.74;65.14;101580.41;7393725;19;20022;-66
2023/09/16 11:15:35;;;;;;;6.40;2.92;;;;;;;20.79;64.51;101574.53;7395028;19;20010;-66
2023/09/16 11:18:16;;;;;;;4.90;2.80;;;;;;;20.90;64.49;101579.66;7392542;19;20019;-66
2023/09/16 11:20:43;;;;;;;6.75;2.83;;;;;;;20.85;64.86;101577.44;7395152;19;20031;-66
2023/09/16 11:23:12;;;;;;;9.05;3.47;;;;;;;20.88;64.50;101577.13;7395385;19;20021;-66
2023/09/16 11:25:40;;;;;;;5.65;3.22;;;;;;;;;;7394072;19;20025;-66
2023/09/16 11:28:11;;;;;;;7.43;3.00;;;;;;;21.31;62.18;101571.75;7394043;19;20018;-66
2023/09/16 11:30:52;;;;;;;5.55;2.75;;;;;;;21.36;61.48;101572.13;7394311;19;20405;-66